createdAt,value
2023-05-10T00:00:16.988Z,13.51
2023-05-10T00:03:19.876Z,13.67
2023-05-10T00:06:22.218Z,13.91
2023-05-10T00:09:24.489Z,13.95
2023-05-10T00:12:26.696Z,13.73
2023-05-10T00:15:29.046Z,13.90
2023-05-10T00:18:31.222Z,13.99
2023-05-10T00:21:34.640Z,14.00
2023-05-10T00:24:36.912Z,14.08
2023-05-10T00:27:39.168Z,14.10
2023-05-10T00:30:41.462Z,14.10
2023-05-10T00:33:43.714Z,14.05
2023-05-10T00:36:45.918Z,14.08
2023-05-10T00:39:48.103Z,14.10
2023-05-10T00:42:50.360Z,14.07
2023-05-10T00:45:52.741Z,14.06
2023-05-10T00:48:55.175Z,14.06
2023-05-10T00:51:57.494Z,14.08
2023-05-10T00:54:59.898Z,14.01
2023-05-10T00:58:02.493Z,13.98
2023-05-10T01:01:05.863Z,14.00
2023-05-10T01:04:08.108Z,14.03
2023-05-10T01:07:10.383Z,14.07
2023-05-10T01:10:13.234Z,14.07
2023-05-10T01:13:20.075Z,14.09
2023-05-10T01:16:24.930Z,14.09
2023-05-10T01:19:28.288Z,14.06
2023-05-10T01:22:45.586Z,14.07
2023-05-10T01:26:09.632Z,13.92
2023-05-10T01:29:55.718Z,14.03
2023-05-10T01:33:12.162Z,14.06
2023-05-10T01:36:27.255Z,14.07
2023-05-10T01:39:46.973Z,14.13
2023-05-10T01:42:54.384Z,14.10
2023-05-10T01:45:56.826Z,14.10
2023-05-10T01:49:01.179Z,14.12
2023-05-10T01:52:10.052Z,14.14
2023-05-10T01:55:17.080Z,14.14
2023-05-10T01:58:26.460Z,14.10
2023-05-10T02:01:29.030Z,14.12
2023-05-10T02:04:32.019Z,13.96
2023-05-10T02:07:34.467Z,14.01
2023-05-10T02:10:37.747Z,14.04
2023-05-10T02:13:40.500Z,13.87
2023-05-10T02:16:44.158Z,13.73
2023-05-10T02:19:48.381Z,13.78
2023-05-10T02:22:52.218Z,13.83
2023-05-10T02:25:56.018Z,13.77
2023-05-10T02:28:59.409Z,13.60
2023-05-10T02:32:01.958Z,13.56
2023-05-10T02:35:04.977Z,13.62
2023-05-10T02:38:07.133Z,13.51
2023-05-10T02:41:09.752Z,13.57
2023-05-10T02:44:12.758Z,13.63
2023-05-10T02:47:15.845Z,13.56
2023-05-10T02:50:18.345Z,13.65
2023-05-10T02:53:24.061Z,13.42
2023-05-10T02:56:34.410Z,13.43
2023-05-10T02:59:36.617Z,13.59
2023-05-10T03:02:38.912Z,13.42
2023-05-10T03:05:41.425Z,13.56
2023-05-10T03:08:45.014Z,13.56
2023-05-10T03:12:26.783Z,13.49
2023-05-10T03:15:39.082Z,13.23
2023-05-10T03:19:07.249Z,13.23
2023-05-10T03:22:12.104Z,13.19
2023-05-10T03:25:16.664Z,13.00
2023-05-10T03:28:19.716Z,13.10
2023-05-10T03:31:23.031Z,13.18
2023-05-10T03:34:25.913Z,13.26
2023-05-10T03:37:28.547Z,13.23
2023-05-10T03:40:32.829Z,13.09
2023-05-10T03:43:35.375Z,13.06
2023-05-10T03:46:37.848Z,12.92
2023-05-10T03:49:40.626Z,13.08
2023-05-10T03:52:42.847Z,13.11
2023-05-10T03:55:45.862Z,12.95
2023-05-10T03:58:48.294Z,13.08
2023-05-10T04:01:50.752Z,13.12
2023-05-10T04:04:53.079Z,13.28
2023-05-10T04:07:56.083Z,13.27
2023-05-10T04:11:12.110Z,13.14
2023-05-10T04:14:14.327Z,13.22
2023-05-10T04:17:16.675Z,13.29
2023-05-10T04:20:19.121Z,13.38
2023-05-10T04:23:21.580Z,13.38
2023-05-10T04:26:23.789Z,13.21
2023-05-10T04:29:26.018Z,13.23
2023-05-10T04:32:29.100Z,13.16
2023-05-10T04:35:31.347Z,13.45
2023-05-10T04:38:33.660Z,13.76
2023-05-10T04:41:35.937Z,13.82
2023-05-10T04:44:38.403Z,13.85
2023-05-10T04:47:40.726Z,13.96
2023-05-10T04:50:43.011Z,13.94
2023-05-10T04:53:51.169Z,14.30
2023-05-10T04:57:00.052Z,14.54
2023-05-10T05:00:02.994Z,14.72
2023-05-10T05:03:05.120Z,14.73
2023-05-10T05:06:07.499Z,14.72
2023-05-10T05:09:11.129Z,14.94
2023-05-10T05:12:15.186Z,14.94
2023-05-10T05:15:17.928Z,15.17
2023-05-10T05:18:20.438Z,15.03
2023-05-10T05:21:23.301Z,14.82
2023-05-10T05:24:25.559Z,14.67
2023-05-10T05:27:28.883Z,14.08
2023-05-10T05:30:31.139Z,14.39
2023-05-10T05:33:33.411Z,14.59
2023-05-10T05:36:39.400Z,14.77
2023-05-10T05:39:41.872Z,14.96
2023-05-10T05:42:44.131Z,14.92
2023-05-10T05:45:46.444Z,14.89
2023-05-10T05:48:48.692Z,15.09
2023-05-10T05:51:51.310Z,15.55
2023-05-10T05:54:53.547Z,15.28
2023-05-10T05:57:55.809Z,15.49
2023-05-10T06:00:58.416Z,15.70
2023-05-10T06:04:00.902Z,16.05
2023-05-10T06:07:03.249Z,16.48
2023-05-10T06:10:06.856Z,16.48
2023-05-10T06:13:09.129Z,16.30
2023-05-10T06:16:11.466Z,16.48
2023-05-10T06:19:13.812Z,16.31
2023-05-10T06:22:16.036Z,16.29
2023-05-10T06:25:19.389Z,16.49
2023-05-10T06:28:22.125Z,17.54
2023-05-10T06:31:24.456Z,18.15
2023-05-10T06:34:26.799Z,20.08
2023-05-10T06:37:29.218Z,22.45
2023-05-10T06:40:31.574Z,24.29
2023-05-10T06:43:33.890Z,24.46
2023-05-10T06:46:36.359Z,24.14
2023-05-10T06:49:38.596Z,24.45
2023-05-10T06:52:40.834Z,24.92
2023-05-10T06:55:43.068Z,25.07
2023-05-10T06:58:45.329Z,25.20
2023-05-10T07:01:47.567Z,28.03
2023-05-10T07:04:49.888Z,27.15
2023-05-10T07:07:52.670Z,29.30
2023-05-10T07:11:01.096Z,25.16
2023-05-10T07:14:03.562Z,26.70
2023-05-10T07:17:05.689Z,24.76
2023-05-10T07:20:08.761Z,22.37
2023-05-10T07:23:10.984Z,22.65
2023-05-10T07:26:13.209Z,20.93
2023-05-10T07:29:15.441Z,20.09
2023-05-10T07:32:17.744Z,18.19
2023-05-10T07:35:20.019Z,18.89
2023-05-10T07:38:22.301Z,23.21
2023-05-10T07:41:24.953Z,18.84
2023-05-10T07:44:27.151Z,20.25
2023-05-10T07:47:29.309Z,22.95
2023-05-10T07:50:31.730Z,21.33
2023-05-10T07:53:34.051Z,18.48
2023-05-10T07:56:36.461Z,18.44
2023-05-10T07:59:38.706Z,19.29
2023-05-10T08:02:41.861Z,19.41
2023-05-10T08:05:44.424Z,19.19
2023-05-10T08:08:50.363Z,22.39
2023-05-10T08:11:52.633Z,21.64
2023-05-10T08:14:54.893Z,21.97
2023-05-10T08:17:57.146Z,19.32
2023-05-10T08:20:59.398Z,18.74
2023-05-10T08:24:01.612Z,20.82
2023-05-10T08:27:03.899Z,21.76
2023-05-10T08:30:06.892Z,19.57
2023-05-10T08:33:09.147Z,19.42
2023-05-10T08:36:12.348Z,18.89
2023-05-10T08:39:23.337Z,18.52
2023-05-10T08:42:31.800Z,17.69
2023-05-10T08:45:39.618Z,17.58
2023-05-10T08:48:42.316Z,18.57
2023-05-10T08:51:48.929Z,18.42
2023-05-10T08:54:51.509Z,18.95
2023-05-10T08:57:54.484Z,19.24
2023-05-10T09:00:57.208Z,18.68
2023-05-10T09:03:59.402Z,18.29
2023-05-10T09:07:02.136Z,18.71
2023-05-10T09:10:05.093Z,19.06
2023-05-10T09:13:08.231Z,18.35
2023-05-10T09:16:21.137Z,18.71
2023-05-10T09:19:24.510Z,19.09
2023-05-10T09:22:26.919Z,18.83
2023-05-10T09:25:47.889Z,18.98
2023-05-10T09:29:00.553Z,19.30
2023-05-10T09:32:02.783Z,19.15
2023-05-10T09:35:12.474Z,18.91
2023-05-10T09:38:14.769Z,19.03
2023-05-10T09:41:23.949Z,19.33
2023-05-10T09:44:27.470Z,19.62
2023-05-10T09:47:29.833Z,19.50
2023-05-10T09:50:32.355Z,19.60
2023-05-10T09:53:34.600Z,19.52
2023-05-10T09:56:39.648Z,19.55
2023-05-10T09:59:44.011Z,19.63
2023-05-10T10:02:55.084Z,19.55
2023-05-10T10:06:00.714Z,19.62
2023-05-10T10:09:03.096Z,19.55
2023-05-10T10:12:05.760Z,19.75
2023-05-10T10:15:08.375Z,18.95
2023-05-10T10:18:14.485Z,19.08
2023-05-10T10:21:16.921Z,19.41
2023-05-10T10:24:19.298Z,19.37
2023-05-10T10:27:26.284Z,19.53
2023-05-10T10:30:44.690Z,19.50
2023-05-10T10:34:08.140Z,19.51
2023-05-10T10:37:10.701Z,19.13
2023-05-10T10:40:26.796Z,18.57
2023-05-10T10:43:29.957Z,18.64
2023-05-10T10:46:32.873Z,18.49
2023-05-10T10:49:40.902Z,18.73
2023-05-10T10:52:44.455Z,18.43
2023-05-10T10:55:50.064Z,18.43
2023-05-10T10:58:53.532Z,18.74
2023-05-10T11:01:55.814Z,18.56
2023-05-10T11:04:58.024Z,18.98
2023-05-10T11:08:01.898Z,19.09
2023-05-10T11:11:09.421Z,18.58
2023-05-10T11:14:11.656Z,18.49
2023-05-10T11:17:28.070Z,18.41
2023-05-10T11:20:39.675Z,18.77
2023-05-10T11:23:44.856Z,18.73
2023-05-10T11:26:47.326Z,18.47
2023-05-10T11:29:52.816Z,18.49
2023-05-10T11:32:55.116Z,18.47
2023-05-10T11:35:57.439Z,18.07
2023-05-10T11:38:59.769Z,18.24
2023-05-10T11:42:02.012Z,18.41
2023-05-10T11:45:04.762Z,18.45
2023-05-10T11:48:06.959Z,18.27
2023-05-10T11:51:09.950Z,18.32
2023-05-10T11:54:12.764Z,18.49
2023-05-10T11:57:14.922Z,18.63
2023-05-10T12:00:17.632Z,18.51
2023-05-10T12:03:20.466Z,18.85
2023-05-10T12:06:23.046Z,19.18
2023-05-10T12:09:39.687Z,18.95
2023-05-10T12:12:46.718Z,18.68
2023-05-10T12:15:48.968Z,18.59
2023-05-10T12:18:52.677Z,18.73
2023-05-10T12:21:55.067Z,19.01
2023-05-10T12:24:59.729Z,19.28
2023-05-10T12:28:05.001Z,18.90
2023-05-10T12:31:08.222Z,19.04
2023-05-10T12:34:10.442Z,19.30
2023-05-10T12:37:13.595Z,18.82
2023-05-10T12:40:16.105Z,18.54
2023-05-10T12:43:18.480Z,18.56
2023-05-10T12:46:20.821Z,18.75
2023-05-10T12:49:23.115Z,18.58
2023-05-10T12:52:27.086Z,18.60
2023-05-10T12:55:29.312Z,18.59
2023-05-10T12:58:36.077Z,18.71
2023-05-10T13:01:38.733Z,19.01
2023-05-10T13:04:41.867Z,19.11
2023-05-10T13:07:44.942Z,18.88
2023-05-10T13:10:47.207Z,18.68
2023-05-10T13:13:49.488Z,18.93
2023-05-10T13:16:51.799Z,19.14
2023-05-10T13:19:54.091Z,19.16
2023-05-10T13:22:56.324Z,19.01
2023-05-10T13:25:58.627Z,19.14
2023-05-10T13:29:00.896Z,18.81
2023-05-10T13:32:03.665Z,18.87
2023-05-10T13:35:06.382Z,18.55
2023-05-10T13:38:09.100Z,18.45
2023-05-10T13:41:11.662Z,18.43
2023-05-10T13:44:15.422Z,18.42
2023-05-10T13:47:17.608Z,18.32
2023-05-10T13:50:19.922Z,18.42
2023-05-10T13:53:22.203Z,18.56
2023-05-10T13:56:24.497Z,18.72
2023-05-10T13:59:26.755Z,18.93
2023-05-10T14:02:29.339Z,18.78
2023-05-10T14:05:31.829Z,18.71
2023-05-10T14:08:35.215Z,18.82
2023-05-10T14:11:37.464Z,19.04
2023-05-10T14:14:40.103Z,19.10
2023-05-10T14:17:42.291Z,18.91
2023-05-10T14:20:44.456Z,18.95
2023-05-10T14:23:46.748Z,18.94
2023-05-10T14:26:49.024Z,18.87
2023-05-10T14:29:51.214Z,19.11
2023-05-10T14:32:55.070Z,18.89
2023-05-10T14:35:58.363Z,18.69
2023-05-10T14:39:00.602Z,18.88
2023-05-10T14:42:03.687Z,18.92
2023-05-10T14:45:06.659Z,18.91
2023-05-10T14:48:12.206Z,19.05
2023-05-10T14:51:14.465Z,19.26
2023-05-10T14:54:16.757Z,19.29
2023-05-10T14:57:18.982Z,19.40
2023-05-10T15:00:21.845Z,19.18
2023-05-10T15:03:24.595Z,19.38
2023-05-10T15:06:36.542Z,19.45
2023-05-10T15:09:38.757Z,19.46
2023-05-10T15:12:41.122Z,19.53
2023-05-10T15:15:43.682Z,19.43
2023-05-10T15:18:46.033Z,19.44
2023-05-10T15:21:48.375Z,19.42
2023-05-10T15:24:50.642Z,19.52
2023-05-10T15:27:52.872Z,19.02
2023-05-10T15:30:55.158Z,18.95
2023-05-10T15:34:00.322Z,19.11
2023-05-10T15:37:02.540Z,18.83
2023-05-10T15:40:05.320Z,19.03
2023-05-10T15:43:07.588Z,19.18
2023-05-10T15:46:09.828Z,19.07
2023-05-10T15:49:12.258Z,19.14
2023-05-10T15:52:14.507Z,18.99
2023-05-10T15:55:17.342Z,18.86
2023-05-10T15:58:19.768Z,18.97
2023-05-10T16:01:22.136Z,19.11
2023-05-10T16:04:24.452Z,19.20
2023-05-10T16:07:26.731Z,19.11
2023-05-10T16:10:33.258Z,18.99
2023-05-10T16:13:35.584Z,19.08
2023-05-10T16:16:37.981Z,18.99
2023-05-10T16:19:40.969Z,18.64
2023-05-10T16:22:45.566Z,18.60
2023-05-10T16:25:47.710Z,18.47
2023-05-10T16:28:49.958Z,18.54
2023-05-10T16:31:52.142Z,18.64
2023-05-10T16:34:54.577Z,18.60
2023-05-10T16:37:57.782Z,18.45
2023-05-10T16:41:02.407Z,18.49
2023-05-10T16:44:04.778Z,18.42
2023-05-10T16:47:07.732Z,18.27
2023-05-10T16:50:10.342Z,18.47
2023-05-10T16:53:13.362Z,18.55
2023-05-10T16:56:17.750Z,18.69
2023-05-10T16:59:19.979Z,18.69
2023-05-10T17:02:25.071Z,18.75
2023-05-10T17:05:27.528Z,18.68
2023-05-10T17:08:29.751Z,18.73
2023-05-10T17:11:32.981Z,18.70
2023-05-10T17:14:35.877Z,18.71
2023-05-10T17:17:38.278Z,18.68
2023-05-10T17:20:43.233Z,18.64
2023-05-10T17:23:45.435Z,18.66
2023-05-10T17:26:48.017Z,18.64
2023-05-10T17:29:50.602Z,18.55
2023-05-10T17:32:54.268Z,18.51
2023-05-10T17:35:56.912Z,18.48
2023-05-10T17:38:59.371Z,18.46
2023-05-10T17:42:01.565Z,18.43
2023-05-10T17:45:04.231Z,18.40
2023-05-10T17:48:06.420Z,18.34
2023-05-10T17:51:08.832Z,18.30
2023-05-10T17:54:11.063Z,18.30
2023-05-10T17:57:13.260Z,18.30
2023-05-10T18:00:16.023Z,18.28
2023-05-10T18:03:18.333Z,18.24
2023-05-10T18:06:20.596Z,18.19
2023-05-10T18:09:22.789Z,18.19
2023-05-10T18:12:25.134Z,18.18
2023-05-10T18:15:27.822Z,18.13
2023-05-10T18:18:29.947Z,18.12
2023-05-10T18:21:32.720Z,18.00
2023-05-10T18:24:39.688Z,18.01
2023-05-10T18:27:42.832Z,18.01
2023-05-10T18:30:45.493Z,17.95
2023-05-10T18:33:47.626Z,17.94
2023-05-10T18:36:49.744Z,17.92
2023-05-10T18:39:51.994Z,17.88
2023-05-10T18:42:54.277Z,17.83
2023-05-10T18:45:56.596Z,17.82
2023-05-10T18:48:58.867Z,17.83
2023-05-10T18:52:01.097Z,17.83
2023-05-10T18:55:03.918Z,17.81
2023-05-10T18:58:06.023Z,17.78
2023-05-10T19:01:09.017Z,17.76
2023-05-10T19:04:11.470Z,17.75
2023-05-10T19:07:13.722Z,17.70
2023-05-10T19:10:15.964Z,17.66
2023-05-10T19:13:18.354Z,17.67
2023-05-10T19:16:24.066Z,17.65
2023-05-10T19:19:27.389Z,17.66
2023-05-10T19:22:47.321Z,17.64
2023-05-10T19:25:55.599Z,17.56
2023-05-10T19:28:58.201Z,17.56
2023-05-10T19:32:00.841Z,17.56
2023-05-10T19:35:03.286Z,17.57
2023-05-10T19:38:05.638Z,17.54
2023-05-10T19:41:07.945Z,17.54
2023-05-10T19:44:10.454Z,17.55
2023-05-10T19:47:12.958Z,17.54
2023-05-10T19:50:18.310Z,17.53
2023-05-10T19:53:20.721Z,17.52
2023-05-10T19:56:23.010Z,17.50
2023-05-10T19:59:25.455Z,17.49
2023-05-10T20:02:27.718Z,17.49
2023-05-10T20:05:29.963Z,17.46
2023-05-10T20:08:32.246Z,17.46
2023-05-10T20:11:34.436Z,17.46
2023-05-10T20:14:37.632Z,17.47
2023-05-10T20:17:39.957Z,17.48
2023-05-10T20:20:43.181Z,17.48
2023-05-10T20:23:45.771Z,17.49
2023-05-10T20:26:47.974Z,17.50
2023-05-10T20:29:50.739Z,17.50
2023-05-10T20:32:52.986Z,17.49
2023-05-10T20:35:55.141Z,17.47
2023-05-10T20:38:57.351Z,17.47
2023-05-10T20:42:00.276Z,17.45
2023-05-10T20:45:02.566Z,17.45
2023-05-10T20:48:05.265Z,17.40
2023-05-10T20:51:08.867Z,17.36
2023-05-10T20:54:11.136Z,17.35
2023-05-10T20:57:13.509Z,17.37
2023-05-10T21:00:16.166Z,17.35
2023-05-10T21:03:18.765Z,17.34
2023-05-10T21:06:20.993Z,17.33
2023-05-10T21:09:23.202Z,17.32
2023-05-10T21:12:25.588Z,17.33
2023-05-10T21:15:28.722Z,17.33
2023-05-10T21:18:31.067Z,17.34
2023-05-10T21:21:33.265Z,17.34
2023-05-10T21:24:35.601Z,17.34
2023-05-10T21:27:37.956Z,17.34
2023-05-10T21:30:40.294Z,17.34
2023-05-10T21:33:42.567Z,17.34
2023-05-10T21:36:44.898Z,17.33
2023-05-10T21:39:47.181Z,17.32
2023-05-10T21:42:49.633Z,17.33
2023-05-10T21:45:52.636Z,17.31
2023-05-10T21:48:54.873Z,17.29
2023-05-10T21:51:57.085Z,17.27
2023-05-10T21:54:59.407Z,17.26
2023-05-10T21:58:01.704Z,17.26
2023-05-10T22:01:04.132Z,17.26
2023-05-10T22:04:06.413Z,17.24
2023-05-10T22:07:08.698Z,17.23
2023-05-10T22:10:11.162Z,17.23
2023-05-10T22:13:13.365Z,17.20
2023-05-10T22:16:15.795Z,17.21
2023-05-10T22:19:18.112Z,17.19
2023-05-10T22:22:20.597Z,17.18
2023-05-10T22:25:23.071Z,17.18
2023-05-10T22:28:25.460Z,17.18
2023-05-10T22:31:27.988Z,17.18
2023-05-10T22:34:30.210Z,17.17
2023-05-10T22:37:32.479Z,17.14
2023-05-10T22:40:34.674Z,16.91
2023-05-10T22:43:36.930Z,16.92
2023-05-10T22:46:39.146Z,16.89
2023-05-10T22:49:41.521Z,16.87
2023-05-10T22:52:43.747Z,16.84
2023-05-10T22:55:47.094Z,16.80
2023-05-10T22:58:49.601Z,16.72
2023-05-10T23:01:51.852Z,16.69
2023-05-10T23:04:54.172Z,16.64
2023-05-10T23:07:56.418Z,16.59
2023-05-10T23:10:58.682Z,16.52
2023-05-10T23:14:00.978Z,16.41
2023-05-10T23:17:03.237Z,15.98
2023-05-10T23:20:06.096Z,16.09
2023-05-10T23:23:08.396Z,16.15
2023-05-10T23:26:10.541Z,16.15
2023-05-10T23:29:12.830Z,16.08
2023-05-10T23:32:15.182Z,16.14
2023-05-10T23:35:17.512Z,16.15
2023-05-10T23:38:19.900Z,16.15
2023-05-10T23:41:22.455Z,16.07
2023-05-10T23:44:24.703Z,16.07
2023-05-10T23:47:26.987Z,16.08
2023-05-10T23:50:29.200Z,16.07
2023-05-10T23:53:31.422Z,16.05
2023-05-10T23:56:33.666Z,15.98
2023-05-10T23:59:35.998Z,16.03
